createdAt,value
2022-10-22T00:02:09.374Z,100228.91
2022-10-22T00:04:58.351Z,100230.81
2022-10-22T00:07:46.216Z,100229.31
2022-10-22T00:10:33.889Z,100224.50
2022-10-22T00:13:21.654Z,100231.13
2022-10-22T00:16:09.313Z,100220.13
2022-10-22T00:18:56.549Z,100232.16
2022-10-22T00:21:45.737Z,100233.22
2022-10-22T00:24:33.395Z,100227.91
2022-10-22T00:27:20.622Z,100241.25
2022-10-22T00:30:09.187Z,100228.28
2022-10-22T00:32:56.667Z,100230.00
2022-10-22T00:35:45.349Z,100250.59
2022-10-22T00:38:34.558Z,100262.59
2022-10-22T00:41:22.071Z,100265.94
2022-10-22T00:44:09.530Z,100270.34
2022-10-22T00:46:57.088Z,100267.00
2022-10-22T00:49:45.980Z,100259.66
2022-10-22T00:52:34.046Z,100263.22
2022-10-22T00:55:25.331Z,100272.44
2022-10-22T00:58:14.357Z,100266.81
2022-10-22T01:01:02.239Z,100277.31
2022-10-22T01:03:49.913Z,100278.75
2022-10-22T01:06:37.053Z,100267.41
2022-10-22T01:09:34.764Z,100267.63
2022-10-22T01:12:33.767Z,100259.84
2022-10-22T01:15:26.407Z,100263.00
2022-10-22T01:18:21.588Z,100255.81
2022-10-22T01:21:16.957Z,100256.47
2022-10-22T01:24:29.036Z,100258.34
2022-10-22T01:27:40.058Z,100264.00
2022-10-22T01:30:29.097Z,100264.63
2022-10-22T01:33:20.937Z,100277.06
2022-10-22T01:36:09.574Z,100262.56
2022-10-22T01:38:58.173Z,100268.63
2022-10-22T01:41:46.352Z,100263.81
2022-10-22T01:47:39.076Z,100262.78
2022-10-22T01:50:45.981Z,100258.78
2022-10-22T01:53:42.054Z,100254.41
2022-10-22T01:56:45.827Z,100251.44
2022-10-22T01:59:45.971Z,100250.59
2022-10-22T02:02:42.461Z,100264.00
2022-10-22T02:05:36.769Z,100248.06
2022-10-22T02:08:27.802Z,100253.53
2022-10-22T02:11:16.817Z,100255.19
2022-10-22T02:14:06.654Z,100245.53
2022-10-22T02:16:54.238Z,100239.22
2022-10-22T02:19:49.089Z,100230.81
2022-10-22T02:22:37.054Z,100229.97
2022-10-22T02:25:29.075Z,100233.75
2022-10-22T02:28:21.160Z,100227.88
2022-10-22T02:31:17.157Z,100229.13
2022-10-22T02:34:10.287Z,100242.59
2022-10-22T02:37:01.346Z,100244.28
2022-10-22T02:39:50.039Z,100240.06
2022-10-22T02:42:39.557Z,100243.63
2022-10-22T02:45:27.213Z,100234.59
2022-10-22T02:48:14.338Z,100240.66
2022-10-22T02:51:02.133Z,100234.19
2022-10-22T02:53:50.874Z,100230.81
2022-10-22T02:56:38.254Z,100230.38
2022-10-22T02:59:25.569Z,100241.31
2022-10-22T03:02:13.056Z,100246.78
2022-10-22T03:05:01.986Z,100239.22
2022-10-22T03:07:49.147Z,100253.31
2022-10-22T03:10:38.388Z,100253.31
2022-10-22T03:13:25.923Z,100239.84
2022-10-22T03:16:13.436Z,100242.38
2022-10-22T03:19:02.031Z,100265.09
2022-10-22T03:21:51.694Z,100254.81
2022-10-22T03:24:42.923Z,100269.09
2022-10-22T03:27:32.077Z,100267.00
2022-10-22T03:30:20.065Z,100271.38
2022-10-22T03:33:07.734Z,100269.94
2022-10-22T03:35:55.488Z,100267.81
2022-10-22T03:38:43.505Z,100280.47
2022-10-22T03:41:31.051Z,100282.53
2022-10-22T03:44:20.090Z,100280.41
2022-10-22T03:47:08.037Z,100282.56
2022-10-22T03:49:55.690Z,100282.16
2022-10-22T03:52:42.833Z,100288.44
2022-10-22T03:55:30.314Z,100294.75
2022-10-22T03:58:18.357Z,100297.69
2022-10-22T04:01:08.339Z,100283.41
2022-10-22T04:03:57.142Z,100288.88
2022-10-22T04:06:44.487Z,100294.75
2022-10-22T04:09:32.535Z,100304.66
2022-10-22T04:12:20.434Z,100302.75
2022-10-22T04:15:10.760Z,100293.28
2022-10-22T04:17:59.438Z,100296.03
2022-10-22T04:20:46.787Z,100301.47
2022-10-22T04:23:34.574Z,100311.13
2022-10-22T04:26:22.608Z,100315.59
2022-10-22T04:29:13.443Z,100317.91
2022-10-22T04:32:02.978Z,100311.38
2022-10-22T04:34:51.577Z,100321.06
2022-10-22T04:37:39.546Z,100313.22
2022-10-22T04:40:27.587Z,100305.66
2022-10-22T04:43:15.059Z,100306.09
2022-10-22T04:46:02.450Z,100299.59
2022-10-22T04:48:49.787Z,100308.19
2022-10-22T04:51:38.793Z,100298.50
2022-10-22T04:54:29.081Z,100299.59
2022-10-22T04:57:19.707Z,100295.81
2022-10-22T05:00:08.268Z,100305.25
2022-10-22T05:02:55.513Z,100300.44
2022-10-22T05:05:43.220Z,100298.53
2022-10-22T05:08:31.962Z,100302.94
2022-10-22T05:11:21.656Z,100305.28
2022-10-22T05:14:09.687Z,100306.31
2022-10-22T05:16:57.236Z,100309.84
2022-10-22T05:19:44.913Z,100314.72
2022-10-22T05:22:32.546Z,100313.22
2022-10-22T05:25:21.007Z,100309.72
2022-10-22T05:28:08.324Z,100313.28
2022-10-22T05:30:57.017Z,100311.53
2022-10-22T05:33:45.595Z,100313.19
2022-10-22T05:36:32.988Z,100324.34
2022-10-22T05:39:20.257Z,100329.59
2022-10-22T05:42:08.781Z,100327.25
2022-10-22T05:44:56.280Z,100325.81
2022-10-22T05:47:44.034Z,100328.97
2022-10-22T05:50:31.408Z,100335.69
2022-10-22T05:53:19.411Z,100337.38
2022-10-22T05:56:09.975Z,100338.00
2022-10-22T05:58:59.016Z,100353.53
2022-10-22T06:01:46.617Z,100353.16
2022-10-22T06:04:33.967Z,100358.25
2022-10-22T06:07:21.290Z,100361.97
2022-10-22T06:10:15.529Z,100365.34
2022-10-22T06:13:03.256Z,100364.97
2022-10-22T06:15:53.509Z,100371.88
2022-10-22T06:18:41.132Z,100380.50
2022-10-22T06:21:28.619Z,100378.63
2022-10-22T06:24:16.445Z,100380.25
2022-10-22T06:27:04.377Z,100393.13
2022-10-22T06:29:51.642Z,100392.25
2022-10-22T06:32:41.580Z,100397.31
2022-10-22T06:35:29.215Z,100395.88
2022-10-22T06:38:17.850Z,100397.34
2022-10-22T06:41:07.147Z,100405.28
2022-10-22T06:43:55.867Z,100400.31
2022-10-22T06:46:43.696Z,100402.00
2022-10-22T06:49:32.805Z,100412.50
2022-10-22T06:52:19.773Z,100418.09
2022-10-22T06:55:07.691Z,100425.94
2022-10-22T06:57:56.736Z,100426.22
2022-10-22T07:00:44.377Z,100424.78
2022-10-22T07:03:31.727Z,100428.53
2022-10-22T07:06:21.399Z,100429.50
2022-10-22T07:09:09.188Z,100434.47
2022-10-22T07:11:56.766Z,100439.63
2022-10-22T07:14:44.794Z,100435.19
2022-10-22T07:17:32.363Z,100430.97
2022-10-22T07:20:21.565Z,100430.94
2022-10-22T07:23:09.803Z,100440.66
2022-10-22T07:25:57.627Z,100431.25
2022-10-22T07:28:44.934Z,100435.44
2022-10-22T07:31:32.757Z,100436.06
2022-10-22T07:37:12.707Z,100452.88
2022-10-22T07:40:03.843Z,100448.53
2022-10-22T07:42:51.365Z,100454.88
2022-10-22T07:45:39.022Z,100456.59
2022-10-22T07:48:26.470Z,100459.91
2022-10-22T07:51:14.438Z,100458.75
2022-10-22T07:54:01.719Z,100450.69
2022-10-22T07:56:50.449Z,100460.75
2022-10-22T07:59:37.774Z,100453.19
2022-10-22T08:02:25.000Z,100454.63
2022-10-22T08:05:13.345Z,100460.56
2022-10-22T08:08:01.081Z,100458.78
2022-10-22T08:10:49.608Z,100462.53
2022-10-22T08:13:42.741Z,100462.81
2022-10-22T08:16:32.797Z,100468.91
2022-10-22T08:19:21.505Z,100472.03
2022-10-22T08:22:08.541Z,100468.03
2022-10-22T08:24:56.467Z,100473.78
2022-10-22T08:27:43.970Z,100471.06
2022-10-22T08:30:34.119Z,100465.88
2022-10-22T08:33:21.311Z,100481.13
2022-10-22T08:36:09.711Z,100476.34
2022-10-22T08:38:57.100Z,100484.84
2022-10-22T08:41:55.524Z,100487.00
2022-10-22T08:44:58.592Z,100488.69
2022-10-22T08:48:03.216Z,100486.13
2022-10-22T08:50:53.826Z,100488.53
2022-10-22T08:53:50.443Z,100487.41
2022-10-22T08:56:40.068Z,100495.16
2022-10-22T08:59:34.269Z,100490.28
2022-10-22T09:02:35.363Z,100488.38
2022-10-22T09:05:37.354Z,100492.72
2022-10-22T09:08:24.896Z,100494.44
2022-10-22T09:11:30.139Z,100495.38
2022-10-22T09:14:20.007Z,100493.59
2022-10-22T09:17:17.417Z,100507.53
2022-10-22T09:20:13.450Z,100500.41
2022-10-22T09:23:16.268Z,100500.19
2022-10-22T09:26:07.958Z,100498.81
2022-10-22T09:28:55.237Z,100497.31
2022-10-22T09:31:43.044Z,100497.88
2022-10-22T09:34:31.461Z,100500.59
2022-10-22T09:37:20.830Z,100500.97
2022-10-22T09:40:16.243Z,100502.78
2022-10-22T09:43:03.279Z,100508.19
2022-10-22T09:45:58.358Z,100513.97
2022-10-22T09:48:50.503Z,100516.28
2022-10-22T09:51:43.147Z,100511.66
2022-10-22T09:54:40.411Z,100519.78
2022-10-22T09:57:30.637Z,100512.41
2022-10-22T10:00:21.111Z,100530.41
2022-10-22T10:03:16.966Z,100529.94
2022-10-22T10:06:07.318Z,100534.81
2022-10-22T10:08:54.925Z,100543.41
2022-10-22T10:11:47.295Z,100539.09
2022-10-22T10:14:43.863Z,100534.78
2022-10-22T10:17:43.108Z,100529.31
2022-10-22T10:20:41.298Z,100540.53
2022-10-22T10:23:33.887Z,100542.81
2022-10-22T10:26:28.456Z,100536.50
2022-10-22T10:29:27.325Z,100542.19
2022-10-22T10:32:31.816Z,100542.75
2022-10-22T10:35:25.765Z,100555.00
2022-10-22T10:38:31.489Z,100553.41
2022-10-22T10:41:28.452Z,100550.78
2022-10-22T10:44:43.344Z,100546.91
2022-10-22T10:48:02.520Z,100556.66
2022-10-22T10:50:57.269Z,100562.16
2022-10-22T10:54:04.204Z,100552.63
2022-10-22T10:56:56.927Z,100556.16
2022-10-22T10:59:55.879Z,100560.59
2022-10-22T11:03:23.745Z,100559.84
2022-10-22T11:06:13.519Z,100554.03
2022-10-22T11:09:04.715Z,100547.81
2022-10-22T11:11:55.392Z,100555.91
2022-10-22T11:14:58.327Z,100562.28
2022-10-22T11:17:48.887Z,100560.72
2022-10-22T11:20:47.910Z,100568.53
2022-10-22T11:23:42.186Z,100570.09
2022-10-22T11:26:38.975Z,100567.41
2022-10-22T11:29:32.935Z,100574.38
2022-10-22T11:32:23.739Z,100570.41
2022-10-22T11:35:17.053Z,100570.56
2022-10-22T11:38:09.761Z,100573.94
2022-10-22T11:41:00.308Z,100570.19
2022-10-22T11:43:59.230Z,100574.75
2022-10-22T11:46:48.346Z,100570.78
2022-10-22T11:49:44.770Z,100576.28
2022-10-22T11:52:49.219Z,100579.88
2022-10-22T11:55:48.442Z,100589.22
2022-10-22T11:58:44.030Z,100587.81
2022-10-22T12:01:43.279Z,100582.19
2022-10-22T12:04:42.645Z,100583.50
2022-10-22T12:07:35.893Z,100581.34
2022-10-22T12:10:28.547Z,100588.41
2022-10-22T12:13:23.679Z,100579.84
2022-10-22T12:16:14.867Z,100577.34
2022-10-22T12:19:06.640Z,100578.19
2022-10-22T12:21:56.560Z,100575.34
2022-10-22T12:24:47.290Z,100567.41
2022-10-22T12:27:37.633Z,100585.03
2022-10-22T12:30:28.175Z,100572.94
2022-10-22T12:33:22.304Z,100585.69
2022-10-22T12:36:18.198Z,100586.03
2022-10-22T12:39:13.474Z,100588.28
2022-10-22T12:42:01.077Z,100582.06
2022-10-22T12:44:48.287Z,100583.97
2022-10-22T12:47:36.890Z,100587.19
2022-10-22T12:50:32.860Z,100594.16
2022-10-22T12:53:25.467Z,100592.13
2022-10-22T12:56:15.616Z,100593.53
2022-10-22T12:59:06.489Z,100597.91
2022-10-22T13:01:55.058Z,100607.59
2022-10-22T13:04:43.968Z,100603.91
2022-10-22T13:07:40.082Z,100602.53
2022-10-22T13:10:32.769Z,100600.22
2022-10-22T13:13:45.528Z,100604.81
2022-10-22T13:16:33.296Z,100593.94
2022-10-22T13:19:44.530Z,100600.50
2022-10-22T13:22:35.101Z,100601.19
2022-10-22T13:25:27.239Z,100596.41
2022-10-22T13:28:22.183Z,100600.63
2022-10-22T13:31:12.518Z,100605.50
2022-10-22T13:34:06.621Z,100606.59
2022-10-22T13:36:58.988Z,100600.34
2022-10-22T13:39:46.499Z,100599.28
2022-10-22T13:42:34.133Z,100599.13
2022-10-22T13:45:21.905Z,100599.47
2022-10-22T13:48:14.129Z,100601.59
2022-10-22T13:51:01.828Z,100601.16
2022-10-22T13:53:52.668Z,100604.00
2022-10-22T13:56:40.129Z,100599.81
2022-10-22T13:59:27.354Z,100605.31
2022-10-22T14:02:16.639Z,100613.88
2022-10-22T14:05:05.268Z,100607.13
2022-10-22T14:07:53.989Z,100613.34
2022-10-22T14:10:42.870Z,100617.41
2022-10-22T14:13:30.152Z,100625.00
2022-10-22T14:16:21.374Z,100621.09
2022-10-22T14:19:11.633Z,100629.50
2022-10-22T14:21:58.951Z,100631.00
2022-10-22T14:24:47.326Z,100635.84
2022-10-22T14:27:36.067Z,100638.06
2022-10-22T14:30:26.156Z,100641.16
2022-10-22T14:33:17.228Z,100639.09
2022-10-22T14:36:04.742Z,100649.47
2022-10-22T14:38:52.300Z,100645.88
2022-10-22T14:41:40.036Z,100645.88
2022-10-22T14:44:28.877Z,100649.56
2022-10-22T14:47:16.368Z,100648.94
2022-10-22T14:50:04.024Z,100654.16
2022-10-22T14:52:52.336Z,100651.31
2022-10-22T14:55:40.476Z,100656.66
2022-10-22T14:58:28.067Z,100663.47
2022-10-22T15:01:16.587Z,100661.94
2022-10-22T15:04:04.489Z,100661.03
2022-10-22T15:06:56.348Z,100660.41
2022-10-22T15:09:43.593Z,100670.63
2022-10-22T15:12:31.281Z,100670.06
2022-10-22T15:15:21.981Z,100669.69
2022-10-22T15:18:12.082Z,100673.97
2022-10-22T15:21:01.379Z,100673.34
2022-10-22T15:23:49.474Z,100675.66
2022-10-22T15:26:36.544Z,100683.31
2022-10-22T15:29:24.248Z,100687.09
2022-10-22T15:32:11.786Z,100675.72
2022-10-22T15:35:00.877Z,100680.16
2022-10-22T15:37:52.380Z,100687.09
2022-10-22T15:40:39.642Z,100681.16
2022-10-22T15:43:26.952Z,100687.66
2022-10-22T15:46:16.552Z,100687.28
2022-10-22T15:49:03.985Z,100690.53
2022-10-22T15:51:53.088Z,100694.38
2022-10-22T15:54:43.977Z,100692.34
2022-10-22T15:57:31.624Z,100688.97
2022-10-22T16:00:19.517Z,100694.91
2022-10-22T16:03:07.897Z,100697.41
2022-10-22T16:05:57.394Z,100691.72
2022-10-22T16:08:46.267Z,100699.88
2022-10-22T16:11:33.952Z,100703.28
2022-10-22T16:14:24.260Z,100693.19
2022-10-22T16:17:11.645Z,100688.38
2022-10-22T16:19:59.333Z,100695.78
2022-10-22T16:22:50.046Z,100701.16
2022-10-22T16:25:40.802Z,100694.91
2022-10-22T16:28:28.787Z,100700.63
2022-10-22T16:31:19.621Z,100700.91
2022-10-22T16:34:06.715Z,100700.97
2022-10-22T16:36:56.623Z,100710.50
2022-10-22T16:39:43.903Z,100714.34
2022-10-22T16:42:32.895Z,100715.81
2022-10-22T16:45:21.107Z,100713.50
2022-10-22T16:48:08.612Z,100727.91
2022-10-22T16:50:55.797Z,100727.28
2022-10-22T16:53:43.794Z,100733.00
2022-10-22T16:56:31.023Z,100734.72
2022-10-22T16:59:19.982Z,100737.47
2022-10-22T17:02:07.490Z,100742.31
2022-10-22T17:04:54.911Z,100740.63
2022-10-22T17:07:42.399Z,100751.41
2022-10-22T17:10:29.607Z,100746.97
2022-10-22T17:13:17.021Z,100749.72
2022-10-22T17:16:08.290Z,100747.81
2022-10-22T17:18:56.651Z,100742.34
2022-10-22T17:21:44.673Z,100745.94
2022-10-22T17:24:32.235Z,100752.28
2022-10-22T17:27:19.464Z,100756.09
2022-10-22T17:30:08.919Z,100756.75
2022-10-22T17:32:57.874Z,100757.59
2022-10-22T17:35:45.257Z,100762.44
2022-10-22T17:38:32.910Z,100761.84
2022-10-22T17:41:22.234Z,100774.50
2022-10-22T17:44:10.302Z,100771.75
2022-10-22T17:47:00.334Z,100779.34
2022-10-22T17:49:49.028Z,100777.03
2022-10-22T17:52:37.246Z,100771.97
2022-10-22T17:55:24.649Z,100776.19
2022-10-22T17:58:11.809Z,100782.94
2022-10-22T18:00:59.969Z,100794.75
2022-10-22T18:03:47.313Z,100796.00
2022-10-22T18:06:36.881Z,100790.34
2022-10-22T18:09:24.615Z,100793.06
2022-10-22T18:12:14.099Z,100801.47
2022-10-22T18:15:01.956Z,100803.59
2022-10-22T18:17:50.519Z,100804.44
2022-10-22T18:20:38.044Z,100803.13
2022-10-22T18:23:27.067Z,100812.41
2022-10-22T18:26:15.584Z,100810.31
2022-10-22T18:29:03.199Z,100809.00
2022-10-22T18:31:51.185Z,100811.94
2022-10-22T18:34:38.732Z,100816.75
2022-10-22T18:37:26.275Z,100814.38
2022-10-22T18:40:15.319Z,100820.22
2022-10-22T18:43:02.992Z,100809.66
2022-10-22T18:45:50.391Z,100816.13
2022-10-22T18:48:37.755Z,100822.63
2022-10-22T18:51:26.347Z,100828.94
2022-10-22T18:54:25.584Z,100828.81
2022-10-22T18:57:14.167Z,100827.91
2022-10-22T19:00:01.560Z,100820.44
2022-10-22T19:02:49.169Z,100829.00
2022-10-22T19:05:36.685Z,100826.81
2022-10-22T19:08:24.769Z,100819.97
2022-10-22T19:11:15.301Z,100819.06
2022-10-22T19:14:04.438Z,100820.59
2022-10-22T19:16:52.228Z,100816.41
2022-10-22T19:19:39.232Z,100814.25
2022-10-22T19:22:27.098Z,100804.94
2022-10-22T19:25:14.190Z,100808.94
2022-10-22T19:28:01.335Z,100821.16
2022-10-22T19:30:49.927Z,100817.34
2022-10-22T19:33:38.991Z,100827.38
2022-10-22T19:36:27.941Z,100833.38
2022-10-22T19:39:17.513Z,100836.88
2022-10-22T19:42:05.336Z,100842.66
2022-10-22T19:44:53.016Z,100840.59
2022-10-22T19:47:42.312Z,100844.19
2022-10-22T19:50:29.639Z,100842.13
2022-10-22T19:53:17.075Z,100826.16
2022-10-22T19:56:07.030Z,100843.19
2022-10-22T19:58:54.637Z,100838.50
2022-10-22T20:01:42.353Z,100829.44
2022-10-22T20:04:31.987Z,100827.91
2022-10-22T20:07:19.327Z,100830.69
2022-10-22T20:10:07.585Z,100839.28
2022-10-22T20:12:54.699Z,100834.78
2022-10-22T20:15:42.362Z,100838.19
2022-10-22T20:18:30.110Z,100839.53
2022-10-22T20:21:20.240Z,100844.59
2022-10-22T20:24:07.700Z,100846.78
2022-10-22T20:26:55.515Z,100845.31
2022-10-22T20:29:42.835Z,100836.31
2022-10-22T20:32:29.977Z,100844.88
2022-10-22T20:35:17.665Z,100832.31
2022-10-22T20:38:06.920Z,100817.13
2022-10-22T20:41:03.660Z,100825.28
2022-10-22T20:43:53.028Z,100835.59
2022-10-22T20:46:40.533Z,100830.50
2022-10-22T20:49:27.680Z,100836.94
2022-10-22T20:52:15.309Z,100850.41
2022-10-22T20:55:04.051Z,100844.97
2022-10-22T20:57:51.580Z,100840.94
2022-10-22T21:00:39.899Z,100837.59
2022-10-22T21:03:27.533Z,100838.88
2022-10-22T21:06:14.662Z,100838.66
2022-10-22T21:09:01.983Z,100841.63
2022-10-22T21:11:51.233Z,100848.19
2022-10-22T21:14:38.951Z,100836.38
2022-10-22T21:17:26.628Z,100838.88
2022-10-22T21:20:13.737Z,100840.44
2022-10-22T21:23:01.109Z,100846.44
2022-10-22T21:25:55.000Z,100845.69
2022-10-22T21:28:44.898Z,100837.88
2022-10-22T21:31:32.707Z,100840.00
2022-10-22T21:34:20.096Z,100839.34
2022-10-22T21:37:07.904Z,100835.53
2022-10-22T21:39:55.387Z,100838.81
2022-10-22T21:42:43.215Z,100837.44
2022-10-22T21:45:32.035Z,100844.66
2022-10-22T21:48:19.421Z,100848.72
2022-10-22T21:51:08.521Z,100852.41
2022-10-22T21:53:56.305Z,100845.31
2022-10-22T21:56:43.168Z,100854.66
2022-10-22T21:59:32.486Z,100842.22
2022-10-22T22:05:13.640Z,100841.66
2022-10-22T22:08:01.140Z,100842.06
2022-10-22T22:10:48.530Z,100845.03
2022-10-22T22:13:36.474Z,100849.59
2022-10-22T22:16:28.441Z,100840.25
2022-10-22T22:19:17.849Z,100851.00
2022-10-22T22:22:05.933Z,100858.38
2022-10-22T22:24:53.456Z,100850.22
2022-10-22T22:27:40.964Z,100846.28
2022-10-22T22:30:29.909Z,100848.44
2022-10-22T22:33:18.757Z,100846.38
2022-10-22T22:36:08.739Z,100849.34
2022-10-22T22:38:56.922Z,100838.09
2022-10-22T22:41:45.112Z,100832.78
2022-10-22T22:44:32.542Z,100827.00
2022-10-22T22:47:20.357Z,100836.28
2022-10-22T22:50:08.759Z,100840.25
2022-10-22T22:52:57.668Z,100830.59
2022-10-22T22:55:44.998Z,100823.75
2022-10-22T22:58:32.437Z,100827.00
2022-10-22T23:01:22.494Z,100831.59
2022-10-22T23:04:13.306Z,100829.69
2022-10-22T23:07:00.726Z,100831.84
2022-10-22T23:09:49.489Z,100834.03
2022-10-22T23:12:36.484Z,100843.84
2022-10-22T23:15:23.655Z,100834.03
2022-10-22T23:18:11.192Z,100835.91
2022-10-22T23:20:58.735Z,100830.41
2022-10-22T23:23:47.297Z,100827.50
2022-10-22T23:26:38.328Z,100819.91
2022-10-22T23:29:27.792Z,100823.84
2022-10-22T23:32:15.711Z,100825.97
2022-10-22T23:35:03.097Z,100817.88
2022-10-22T23:37:50.590Z,100825.00
2022-10-22T23:40:37.791Z,100816.59
2022-10-22T23:43:27.075Z,100812.44
2022-10-22T23:46:15.294Z,100816.34
2022-10-22T23:49:03.149Z,100817.28
2022-10-22T23:51:50.578Z,100812.56
2022-10-22T23:54:38.015Z,100813.63
2022-10-22T23:57:25.769Z,100813.75
